createdAt,value
2023-01-24T00:00:28.709Z,101606.44
2023-01-24T00:02:57.996Z,101598.88
2023-01-24T00:05:26.816Z,101607.84
2023-01-24T00:07:55.949Z,101606.97
2023-01-24T00:10:23.685Z,101609.81
2023-01-24T00:12:50.338Z,101602.41
2023-01-24T00:15:17.590Z,101610.69
2023-01-24T00:17:47.149Z,101608.44
2023-01-24T00:20:16.820Z,101613.78
2023-01-24T00:22:46.151Z,101613.22
2023-01-24T00:25:15.337Z,101615.03
2023-01-24T00:27:42.206Z,101619.78
2023-01-24T00:30:12.319Z,101622.47
2023-01-24T00:32:41.832Z,101626.66
2023-01-24T00:35:08.705Z,101624.25
2023-01-24T00:37:35.411Z,101631.41
2023-01-24T00:40:02.138Z,101625.16
2023-01-24T00:42:28.926Z,101629.59
2023-01-24T00:45:00.798Z,101632.31
2023-01-24T00:47:27.587Z,101631.91
2023-01-24T00:49:54.684Z,101631.47
2023-01-24T00:52:21.592Z,101639.56
2023-01-24T00:54:51.295Z,101634.75
2023-01-24T00:57:18.101Z,101636.81
2023-01-24T00:59:44.644Z,101640.63
2023-01-24T01:02:12.024Z,101636.13
2023-01-24T01:04:38.742Z,101648.88
2023-01-24T01:07:07.931Z,101649.50
2023-01-24T01:09:37.507Z,101651.91
2023-01-24T01:12:04.199Z,101647.34
2023-01-24T01:14:33.453Z,101660.25
2023-01-24T01:17:00.123Z,101658.44
2023-01-24T01:19:29.065Z,101662.84
2023-01-24T01:21:55.786Z,101664.88
2023-01-24T01:24:30.475Z,101663.19
2023-01-24T01:26:57.181Z,101655.06
2023-01-24T01:29:26.730Z,101664.38
2023-01-24T01:31:53.675Z,101652.56
2023-01-24T01:34:28.265Z,101655.94
2023-01-24T01:36:54.990Z,101659.22
2023-01-24T01:39:21.656Z,101657.72
2023-01-24T01:41:48.304Z,101669.94
2023-01-24T01:44:36.704Z,101671.44
2023-01-24T01:47:03.568Z,101673.63
2023-01-24T01:49:32.575Z,101676.59
2023-01-24T01:52:03.717Z,101682.84
2023-01-24T01:54:31.690Z,101676.47
2023-01-24T01:57:11.474Z,101677.50
2023-01-24T01:59:39.929Z,101678.09
2023-01-24T02:02:08.124Z,101684.03
2023-01-24T02:04:38.302Z,101686.94
2023-01-24T02:07:10.860Z,101684.56
2023-01-24T02:09:46.063Z,101680.78
2023-01-24T02:12:14.753Z,101682.88
2023-01-24T02:15:00.142Z,101681.09
2023-01-24T02:17:28.867Z,101683.75
2023-01-24T02:19:58.621Z,101686.94
2023-01-24T02:22:38.127Z,101690.41
2023-01-24T02:25:16.856Z,101690.19
2023-01-24T02:27:43.873Z,101686.78
2023-01-24T02:30:11.148Z,101692.16
2023-01-24T02:32:38.383Z,101685.03
2023-01-24T02:35:06.410Z,101688.69
2023-01-24T02:37:38.653Z,101682.94
2023-01-24T02:40:07.185Z,101691.41
2023-01-24T02:42:35.517Z,101692.00
2023-01-24T02:45:10.014Z,101692.09
2023-01-24T02:47:37.998Z,101696.06
2023-01-24T02:50:09.356Z,101695.69
2023-01-24T02:52:55.690Z,101701.56
2023-01-24T02:55:23.381Z,101704.16
2023-01-24T02:58:08.617Z,101698.25
2023-01-24T03:00:39.011Z,101697.78
2023-01-24T03:03:06.464Z,101702.53
2023-01-24T03:05:52.646Z,101709.59
2023-01-24T03:08:19.343Z,101704.31
2023-01-24T03:10:54.900Z,101702.88
2023-01-24T03:13:40.721Z,101707.75
2023-01-24T03:16:30.375Z,101702.97
2023-01-24T03:19:15.760Z,101704.44
2023-01-24T03:22:01.170Z,101712.59
2023-01-24T03:24:47.154Z,101713.69
2023-01-24T03:27:32.547Z,101712.09
2023-01-24T03:30:18.536Z,101711.38
2023-01-24T03:33:06.879Z,101718.78
2023-01-24T03:35:34.108Z,101721.56
2023-01-24T03:38:19.405Z,101717.19
2023-01-24T03:40:52.199Z,101717.78
2023-01-24T03:43:19.275Z,101716.69
2023-01-24T03:45:52.786Z,101715.03
2023-01-24T03:48:37.451Z,101718.34
2023-01-24T03:51:25.100Z,101721.28
2023-01-24T03:53:54.225Z,101720.84
2023-01-24T03:56:25.438Z,101713.13
2023-01-24T03:58:57.023Z,101708.25
2023-01-24T04:01:30.178Z,101712.97
2023-01-24T04:04:05.398Z,101720.56
2023-01-24T04:06:35.225Z,101719.22
2023-01-24T04:09:05.048Z,101721.00
2023-01-24T04:11:33.361Z,101724.44
2023-01-24T04:14:13.259Z,101727.06
2023-01-24T04:16:53.663Z,101721.19
2023-01-24T04:19:25.299Z,101724.78
2023-01-24T04:21:52.147Z,101719.91
2023-01-24T04:24:21.743Z,101726.91
2023-01-24T04:26:48.627Z,101722.03
2023-01-24T04:29:22.204Z,101719.34
2023-01-24T04:31:52.862Z,101724.94
2023-01-24T04:34:34.633Z,101720.66
2023-01-24T04:37:01.371Z,101726.00
2023-01-24T04:39:30.593Z,101725.97
2023-01-24T04:42:07.754Z,101723.78
2023-01-24T04:44:37.293Z,101726.94
2023-01-24T04:47:09.670Z,101721.84
2023-01-24T04:49:41.104Z,101725.38
2023-01-24T04:52:12.308Z,101721.31
2023-01-24T04:55:09.348Z,101727.19
2023-01-24T04:57:36.171Z,101729.72
2023-01-24T05:00:04.874Z,101736.75
2023-01-24T05:02:34.118Z,101733.72
2023-01-24T05:05:05.843Z,101736.63
2023-01-24T05:07:32.821Z,101737.09
2023-01-24T05:10:09.017Z,101738.88
2023-01-24T05:12:43.311Z,101739.88
2023-01-24T05:15:22.778Z,101737.50
2023-01-24T05:18:02.683Z,101740.28
2023-01-24T05:20:32.346Z,101733.19
2023-01-24T05:23:03.155Z,101741.38
2023-01-24T05:25:35.060Z,101745.69
2023-01-24T05:28:07.202Z,101748.19
2023-01-24T05:30:41.555Z,101744.22
2023-01-24T05:33:21.230Z,101745.00
2023-01-24T05:35:51.052Z,101750.19
2023-01-24T05:38:27.516Z,101741.75
2023-01-24T05:51:49.555Z,101746.06
2023-01-24T05:54:26.972Z,101750.91
2023-01-24T05:57:05.777Z,101755.19
2023-01-24T05:59:52.611Z,101751.63
2023-01-24T06:02:21.947Z,101756.56
2023-01-24T06:04:57.590Z,101759.81
2023-01-24T06:07:29.846Z,101764.19
2023-01-24T06:09:59.042Z,101764.91
2023-01-24T06:12:36.661Z,101771.63
2023-01-24T06:15:05.703Z,101775.47
2023-01-24T06:17:34.897Z,101775.25
2023-01-24T06:20:01.674Z,101781.34
2023-01-24T06:22:36.709Z,101785.19
2023-01-24T06:25:07.587Z,101790.59
2023-01-24T06:27:46.359Z,101789.38
2023-01-24T06:30:20.516Z,101793.88
2023-01-24T06:32:52.544Z,101792.84
2023-01-24T06:35:30.866Z,101798.91
2023-01-24T06:38:00.079Z,101792.06
2023-01-24T06:40:29.322Z,101795.66
2023-01-24T06:42:59.278Z,101795.22
2023-01-24T06:45:26.389Z,101797.69
2023-01-24T06:47:58.619Z,101800.28
2023-01-24T06:50:32.377Z,101797.78
2023-01-24T06:52:59.222Z,101800.16
2023-01-24T06:55:26.460Z,101799.25
2023-01-24T06:57:59.753Z,101800.94
2023-01-24T07:00:26.536Z,101795.00
2023-01-24T07:03:00.470Z,101798.38
2023-01-24T07:05:32.081Z,101803.31
2023-01-24T07:08:01.975Z,101803.53
2023-01-24T07:10:29.788Z,101788.84
2023-01-24T07:12:56.789Z,101801.38
2023-01-24T07:15:26.035Z,101810.38
2023-01-24T07:17:52.877Z,101810.69
2023-01-24T07:20:19.776Z,101807.66
2023-01-24T07:22:46.867Z,101816.63
2023-01-24T07:25:18.117Z,101818.16
2023-01-24T07:27:47.395Z,101823.53
2023-01-24T07:30:17.425Z,101819.13
2023-01-24T07:32:49.037Z,101822.38
2023-01-24T07:35:15.836Z,101821.13
2023-01-24T07:37:44.934Z,101825.22
2023-01-24T07:40:13.956Z,101818.22
2023-01-24T07:42:40.548Z,101822.63
2023-01-24T07:45:07.724Z,101826.38
2023-01-24T07:47:37.214Z,101833.31
2023-01-24T07:50:06.271Z,101827.16
2023-01-24T07:52:35.131Z,101832.06
2023-01-24T07:55:02.823Z,101830.88
2023-01-24T07:57:31.290Z,101835.84
2023-01-24T07:59:58.068Z,101833.84
2023-01-24T08:02:24.812Z,101837.84
2023-01-24T08:04:51.980Z,101832.56
2023-01-24T08:07:18.878Z,101840.25
2023-01-24T08:09:46.269Z,101840.75
2023-01-24T08:12:19.492Z,101841.34
2023-01-24T08:14:47.423Z,101851.91
2023-01-24T08:17:14.188Z,101855.47
2023-01-24T08:19:55.389Z,101852.69
2023-01-24T08:22:22.961Z,101849.97
2023-01-24T08:24:51.977Z,101846.88
2023-01-24T08:27:18.972Z,101861.72
2023-01-24T08:29:45.657Z,101856.13
2023-01-24T08:32:14.677Z,101859.88
2023-01-24T08:34:44.345Z,101863.66
2023-01-24T08:37:11.019Z,101867.22
2023-01-24T08:39:37.619Z,101866.72
2023-01-24T08:42:04.688Z,101863.88
2023-01-24T08:44:34.378Z,101862.75
2023-01-24T08:47:05.673Z,101855.63
2023-01-24T08:49:34.748Z,101860.19
2023-01-24T08:52:01.393Z,101863.16
2023-01-24T08:54:28.781Z,101857.88
2023-01-24T08:56:58.089Z,101860.44
2023-01-24T08:59:24.734Z,101862.34
2023-01-24T09:01:54.518Z,101860.75
2023-01-24T09:04:23.464Z,101862.66
2023-01-24T09:06:52.179Z,101865.59
2023-01-24T09:09:18.904Z,101865.25
2023-01-24T09:11:45.711Z,101869.88
2023-01-24T09:14:12.436Z,101873.06
2023-01-24T09:16:39.275Z,101872.56
2023-01-24T09:19:06.046Z,101865.84
2023-01-24T09:21:32.952Z,101861.94
2023-01-24T09:24:00.748Z,101857.81
2023-01-24T09:26:27.454Z,101863.38
2023-01-24T09:28:54.064Z,101866.94
2023-01-24T09:31:26.229Z,101871.66
2023-01-24T09:33:59.454Z,101865.06
2023-01-24T09:36:27.082Z,101862.84
2023-01-24T09:39:04.981Z,101858.78
2023-01-24T09:41:42.191Z,101849.59
2023-01-24T09:44:15.302Z,101849.06
2023-01-24T09:46:45.954Z,101858.00
2023-01-24T09:49:16.996Z,101851.22
2023-01-24T09:51:47.141Z,101849.59
2023-01-24T09:54:28.318Z,101851.00
2023-01-24T09:56:55.481Z,101848.88
2023-01-24T09:59:27.262Z,101850.63
2023-01-24T10:01:56.735Z,101846.09
2023-01-24T10:04:26.706Z,101842.34
2023-01-24T10:06:55.769Z,101840.06
2023-01-24T10:09:48.468Z,101835.97
2023-01-24T10:12:29.551Z,101826.66
2023-01-24T10:15:06.228Z,101833.31
2023-01-24T10:17:41.885Z,101823.25
2023-01-24T10:20:27.360Z,101816.31
2023-01-24T10:23:01.482Z,101817.81
2023-01-24T10:25:29.068Z,101810.75
2023-01-24T10:27:58.560Z,101815.13
2023-01-24T10:30:46.017Z,101810.34
2023-01-24T10:33:18.028Z,101807.22
2023-01-24T10:36:00.039Z,101805.75
2023-01-24T10:38:27.180Z,101805.41
2023-01-24T10:40:57.629Z,101804.09
2023-01-24T10:43:25.080Z,101799.88
2023-01-24T10:46:06.478Z,101796.97
2023-01-24T10:48:35.574Z,101795.66
2023-01-24T10:51:12.476Z,101796.25
2023-01-24T10:53:39.615Z,101794.25
2023-01-24T10:56:06.879Z,101797.50
2023-01-24T10:58:36.863Z,101794.63
2023-01-24T11:01:08.059Z,101792.03
2023-01-24T11:03:40.942Z,101785.81
2023-01-24T11:06:22.354Z,101786.28
2023-01-24T11:08:51.410Z,101781.00
2023-01-24T11:11:24.755Z,101777.53
2023-01-24T11:13:54.778Z,101780.94
2023-01-24T11:16:23.154Z,101767.94
2023-01-24T11:18:59.295Z,101760.97
2023-01-24T11:21:26.557Z,101767.22
2023-01-24T11:24:23.662Z,101758.59
2023-01-24T11:27:05.138Z,101751.06
2023-01-24T11:29:34.984Z,101753.88
2023-01-24T11:32:05.010Z,101745.91
2023-01-24T11:34:43.673Z,101742.06
2023-01-24T11:37:29.620Z,101742.06
2023-01-24T11:39:58.509Z,101738.47
2023-01-24T11:42:30.371Z,101734.81
2023-01-24T11:45:12.497Z,101738.81
2023-01-24T11:47:53.878Z,101737.41
2023-01-24T11:50:42.165Z,101730.78
2023-01-24T11:53:21.429Z,101735.44
2023-01-24T11:55:51.576Z,101721.09
2023-01-24T11:58:30.857Z,101731.06
2023-01-24T12:01:02.867Z,101723.31
2023-01-24T12:03:34.889Z,101719.72
2023-01-24T12:06:17.233Z,101727.53
2023-01-24T12:08:45.993Z,101721.22
2023-01-24T12:11:29.810Z,101722.25
2023-01-24T12:14:05.387Z,101712.16
2023-01-24T12:16:54.213Z,101713.72
2023-01-24T12:19:39.956Z,101723.09
2023-01-24T12:22:19.197Z,101721.50
2023-01-24T12:25:05.017Z,101707.69
2023-01-24T12:27:35.115Z,101707.44
2023-01-24T12:30:01.783Z,101710.97
2023-01-24T12:32:43.833Z,101708.63
2023-01-24T12:35:31.650Z,101705.94
2023-01-24T12:38:08.469Z,101707.13
2023-01-24T12:40:48.167Z,101703.00
2023-01-24T12:43:18.080Z,101705.91
2023-01-24T12:45:47.953Z,101706.66
2023-01-24T12:48:23.037Z,101709.38
2023-01-24T12:51:27.825Z,101715.06
2023-01-24T12:54:12.454Z,101716.91
2023-01-24T12:56:39.184Z,101710.13
2023-01-24T12:59:09.751Z,101712.41
2023-01-24T13:01:39.865Z,101709.91
2023-01-24T13:04:15.073Z,101715.50
2023-01-24T13:06:47.755Z,101711.00
2023-01-24T13:09:33.221Z,101716.00
2023-01-24T13:12:00.050Z,101708.75
2023-01-24T13:14:38.755Z,101713.69
2023-01-24T13:17:17.720Z,101714.06
2023-01-24T13:19:47.030Z,101717.84
2023-01-24T13:22:19.867Z,101718.16
2023-01-24T13:25:13.487Z,101714.28
2023-01-24T13:27:42.414Z,101716.69
2023-01-24T13:30:27.745Z,101718.31
2023-01-24T13:32:54.708Z,101722.63
2023-01-24T13:35:22.576Z,101721.41
2023-01-24T13:37:53.173Z,101709.50
2023-01-24T13:40:27.989Z,101711.13
2023-01-24T13:42:57.606Z,101710.69
2023-01-24T13:45:30.541Z,101712.47
2023-01-24T13:47:58.254Z,101712.72
2023-01-24T13:50:25.516Z,101715.63
2023-01-24T13:52:55.327Z,101714.13
2023-01-24T13:55:25.610Z,101711.47
2023-01-24T13:58:00.587Z,101717.63
2023-01-24T14:00:27.400Z,101722.19
2023-01-24T14:03:00.703Z,101722.41
2023-01-24T14:05:32.758Z,101719.28
2023-01-24T14:08:16.041Z,101715.78
2023-01-24T14:10:54.409Z,101716.00
2023-01-24T14:13:40.061Z,101716.00
2023-01-24T14:16:09.447Z,101719.50
2023-01-24T14:18:49.129Z,101726.25
2023-01-24T14:21:20.279Z,101724.63
2023-01-24T14:23:50.179Z,101722.91
2023-01-24T14:26:20.146Z,101731.66
2023-01-24T14:28:46.997Z,101722.63
2023-01-24T14:31:20.594Z,101727.66
2023-01-24T14:33:52.024Z,101718.19
2023-01-24T14:36:29.687Z,101717.41
2023-01-24T14:39:11.886Z,101719.59
2023-01-24T14:41:41.122Z,101720.25
2023-01-24T14:44:21.793Z,101721.94
2023-01-24T14:47:12.301Z,101718.56
2023-01-24T14:49:45.963Z,101727.28
2023-01-24T14:52:23.691Z,101728.22
2023-01-24T14:54:57.970Z,101730.00
2023-01-24T14:57:25.890Z,101730.31
2023-01-24T15:00:01.815Z,101733.22
2023-01-24T15:02:31.109Z,101737.06
2023-01-24T15:04:57.737Z,101734.31
2023-01-24T15:07:24.578Z,101741.84
2023-01-24T15:09:51.273Z,101743.03
2023-01-24T15:12:28.804Z,101743.63
2023-01-24T15:14:55.645Z,101750.78
2023-01-24T15:17:23.573Z,101745.03
2023-01-24T15:19:59.897Z,101746.97
2023-01-24T15:22:27.517Z,101757.28
2023-01-24T15:24:58.333Z,101761.19
2023-01-24T15:27:25.791Z,101759.19
2023-01-24T15:30:11.104Z,101758.63
2023-01-24T15:32:40.288Z,101767.72
2023-01-24T15:35:12.894Z,101763.16
2023-01-24T15:37:41.649Z,101764.69
2023-01-24T15:40:20.616Z,101763.91
2023-01-24T15:43:08.905Z,101763.72
2023-01-24T15:45:39.523Z,101771.91
2023-01-24T15:48:16.628Z,101771.44
2023-01-24T15:51:09.452Z,101767.38
2023-01-24T15:53:42.884Z,101768.50
2023-01-24T15:56:35.191Z,101767.91
2023-01-24T15:59:10.337Z,101772.00
2023-01-24T16:01:41.952Z,101777.97
2023-01-24T16:04:20.248Z,101782.06
2023-01-24T16:06:49.335Z,101780.97
2023-01-24T16:09:16.180Z,101784.63
2023-01-24T16:11:46.302Z,101788.50
2023-01-24T16:14:23.345Z,101796.84
2023-01-24T16:16:51.181Z,101790.91
2023-01-24T16:19:18.856Z,101795.78
2023-01-24T16:21:45.576Z,101792.56
2023-01-24T16:24:12.578Z,101796.84
2023-01-24T16:26:43.177Z,101788.13
2023-01-24T16:29:16.094Z,101789.97
2023-01-24T16:31:42.889Z,101790.31
2023-01-24T16:34:14.483Z,101785.91
2023-01-24T16:36:41.340Z,101783.53
2023-01-24T16:39:11.115Z,101783.66
2023-01-24T16:41:40.253Z,101781.84
2023-01-24T16:44:06.854Z,101788.63
2023-01-24T16:46:33.706Z,101791.59
2023-01-24T16:49:00.911Z,101796.13
2023-01-24T16:51:30.134Z,101798.88
2023-01-24T16:53:59.213Z,101803.25
2023-01-24T16:56:32.705Z,101803.25
2023-01-24T16:59:02.262Z,101804.25
2023-01-24T17:01:31.155Z,101808.53
2023-01-24T17:03:58.250Z,101806.03
2023-01-24T17:06:27.345Z,101812.00
2023-01-24T17:08:54.032Z,101812.81
2023-01-24T17:11:20.744Z,101801.53
2023-01-24T17:13:59.442Z,101800.56
2023-01-24T17:16:26.285Z,101805.41
2023-01-24T17:18:52.925Z,101801.03
2023-01-24T17:21:19.682Z,101810.16
2023-01-24T17:23:54.260Z,101812.31
2023-01-24T17:26:21.011Z,101811.56
2023-01-24T17:28:47.564Z,101807.09
2023-01-24T17:31:18.360Z,101812.03
2023-01-24T17:33:47.285Z,101817.06
2023-01-24T17:36:19.095Z,101815.59
2023-01-24T17:38:48.691Z,101817.41
2023-01-24T17:41:18.434Z,101806.44
2023-01-24T17:43:52.985Z,101819.44
2023-01-24T17:46:20.093Z,101820.38
2023-01-24T17:48:49.219Z,101816.69
2023-01-24T17:51:18.706Z,101814.13
2023-01-24T17:53:48.007Z,101817.72
2023-01-24T17:56:15.111Z,101821.53
2023-01-24T17:58:44.156Z,101822.91
2023-01-24T18:01:16.347Z,101822.22
2023-01-24T18:03:48.879Z,101821.44
2023-01-24T18:06:19.071Z,101830.75
2023-01-24T18:08:48.289Z,101825.59
2023-01-24T18:11:18.124Z,101818.44
2023-01-24T18:13:44.907Z,101822.16
2023-01-24T18:16:15.059Z,101818.78
2023-01-24T18:18:42.154Z,101817.75
2023-01-24T18:21:14.209Z,101825.63
2023-01-24T18:23:41.455Z,101826.06
2023-01-24T18:26:13.951Z,101823.72
2023-01-24T18:28:41.301Z,101823.94
2023-01-24T18:31:11.289Z,101821.38
2023-01-24T18:33:43.364Z,101826.06
2023-01-24T18:36:16.781Z,101820.56
2023-01-24T18:38:56.794Z,101819.34
2023-01-24T18:41:24.028Z,101819.13
2023-01-24T18:43:53.123Z,101828.53
2023-01-24T18:46:19.888Z,101819.13
2023-01-24T18:48:46.462Z,101823.59
2023-01-24T18:51:16.392Z,101819.44
2023-01-24T18:53:43.932Z,101822.38
2023-01-24T18:58:53.925Z,101815.97
2023-01-24T19:01:23.224Z,101821.13
2023-01-24T19:03:57.667Z,101819.91
2023-01-24T19:06:30.990Z,101822.78
2023-01-24T19:09:03.841Z,101824.47
2023-01-24T19:11:34.985Z,101831.44
2023-01-24T19:14:04.839Z,101829.09
2023-01-24T19:16:43.629Z,101826.16
2023-01-24T19:19:12.478Z,101834.91
2023-01-24T19:21:39.338Z,101830.09
2023-01-24T19:24:06.447Z,101837.25
2023-01-24T19:26:33.313Z,101827.66
2023-01-24T19:29:00.445Z,101834.44
2023-01-24T19:31:28.143Z,101833.00
2023-01-24T19:33:55.239Z,101835.38
2023-01-24T19:36:24.674Z,101841.19
2023-01-24T19:38:57.626Z,101842.41
2023-01-24T19:41:24.915Z,101837.25
2023-01-24T19:44:17.254Z,101843.31
2023-01-24T19:46:38.976Z,101838.81
2023-01-24T19:49:06.084Z,101836.91
2023-01-24T19:51:57.613Z,101846.66
2023-01-24T19:54:26.737Z,101846.19
2023-01-24T19:56:55.568Z,101843.38
2023-01-24T19:59:22.783Z,101844.94
2023-01-24T20:01:50.625Z,101851.78
2023-01-24T20:04:24.546Z,101839.00
2023-01-24T20:06:54.551Z,101852.03
2023-01-24T20:09:21.656Z,101845.41
2023-01-24T20:11:48.250Z,101846.41
2023-01-24T20:14:14.813Z,101847.88
2023-01-24T20:16:41.552Z,101851.09
2023-01-24T20:19:18.562Z,101848.88
2023-01-24T20:21:49.191Z,101862.00
2023-01-24T20:24:18.566Z,101851.56
2023-01-24T20:26:46.083Z,101849.00
2023-01-24T20:29:15.825Z,101854.13
2023-01-24T20:31:42.552Z,101863.88
2023-01-24T20:34:11.578Z,101856.28
2023-01-24T20:36:41.829Z,101856.28
2023-01-24T20:39:08.731Z,101860.28
2023-01-24T20:41:40.064Z,101859.13
2023-01-24T20:44:12.468Z,101866.47
2023-01-24T20:46:42.203Z,101854.50
2023-01-24T20:49:11.599Z,101862.38
2023-01-24T20:51:40.655Z,101871.13
2023-01-24T20:54:09.898Z,101863.25
2023-01-24T20:56:42.044Z,101864.59
2023-01-24T20:59:11.207Z,101870.50
2023-01-24T21:01:43.899Z,101870.25
2023-01-24T21:04:10.704Z,101869.94
2023-01-24T21:06:47.153Z,101878.31
2023-01-24T21:09:15.885Z,101874.72
2023-01-24T21:11:45.027Z,101870.00
2023-01-24T21:14:12.700Z,101875.16
2023-01-24T21:16:39.491Z,101873.34
2023-01-24T21:19:10.985Z,101871.53
2023-01-24T21:21:38.738Z,101869.47
2023-01-24T21:24:17.220Z,101869.47
2023-01-24T21:26:47.194Z,101877.81
2023-01-24T21:29:18.276Z,101871.88
2023-01-24T21:31:45.115Z,101879.72
2023-01-24T21:34:12.307Z,101883.06
2023-01-24T21:36:42.228Z,101876.22
2023-01-24T21:39:17.767Z,101873.00
2023-01-24T21:42:01.451Z,101872.13
2023-01-24T21:44:34.338Z,101869.66
2023-01-24T21:47:01.826Z,101863.25
2023-01-24T21:49:33.933Z,101860.69
2023-01-24T21:52:11.157Z,101871.69
2023-01-24T21:54:40.912Z,101870.19
2023-01-24T21:57:33.194Z,101860.31
2023-01-24T22:00:09.523Z,101862.22
2023-01-24T22:02:43.587Z,101863.47
2023-01-24T22:05:12.965Z,101851.63
2023-01-24T22:07:41.825Z,101858.22
2023-01-24T22:10:10.203Z,101857.44
2023-01-24T22:12:41.257Z,101860.66
2023-01-24T22:15:08.477Z,101862.78
2023-01-24T22:17:40.631Z,101862.94
2023-01-24T22:20:20.858Z,101865.59
2023-01-24T22:22:47.624Z,101866.38
2023-01-24T22:25:36.743Z,101859.25
2023-01-24T22:28:09.040Z,101860.25
2023-01-24T22:30:42.774Z,101859.84
2023-01-24T22:33:18.396Z,101858.44
2023-01-24T22:35:48.586Z,101863.31
2023-01-24T22:38:15.633Z,101858.72
2023-01-24T22:40:42.986Z,101875.69
2023-01-24T22:43:13.714Z,101870.06
2023-01-24T22:45:42.629Z,101868.78
2023-01-24T22:48:15.734Z,101867.16
2023-01-24T22:50:43.473Z,101878.75
2023-01-24T22:53:13.370Z,101878.91
2023-01-24T22:55:45.066Z,101873.53
2023-01-24T22:58:14.255Z,101873.38
2023-01-24T23:00:40.934Z,101873.25
2023-01-24T23:03:07.584Z,101872.63
2023-01-24T23:05:34.612Z,101871.06
2023-01-24T23:08:01.286Z,101879.81
2023-01-24T23:10:27.929Z,101873.53
2023-01-24T23:13:13.147Z,101877.63
2023-01-24T23:16:03.476Z,101880.59
2023-01-24T23:18:48.932Z,101875.59
2023-01-24T23:21:27.819Z,101882.00
2023-01-24T23:23:54.609Z,101879.69
2023-01-24T23:26:23.538Z,101875.34
2023-01-24T23:28:56.926Z,101880.19
2023-01-24T23:31:26.610Z,101878.78
2023-01-24T23:33:55.689Z,101878.00
2023-01-24T23:36:27.209Z,101883.81
2023-01-24T23:38:56.387Z,101878.53
2023-01-24T23:41:25.415Z,101881.78
2023-01-24T23:43:57.147Z,101878.41
2023-01-24T23:46:26.433Z,101879.56
2023-01-24T23:48:59.245Z,101871.22
2023-01-24T23:51:27.249Z,101880.09
2023-01-24T23:53:56.297Z,101881.50
2023-01-24T23:56:23.047Z,101878.41
2023-01-24T23:58:49.666Z,101873.53
